Time;durP1;ratioP1;P1;durP2;ratioP2;P2;SDS_P1;SDS_P2;PMS_P1;PMS_P2;Temp;Humidity;BMP_temperature;BMP_pressure;BME280_temperature;BME280_humidity;BME280_pressure;Samples;Min_cycle;Max_cycle;Signal;HPM_P1;HPM_P2
2023/10/27 00:00:00;;;;;;;46.58;28.58;;;12.20;99.90;;;;;;5035413;28;37328;-75
2023/10/27 00:02:26;;;;;;;43.80;28.70;;;12.20;99.90;;;;;;5031743;28;38669;-74
2023/10/27 00:04:52;;;;;;;50.72;28.55;;;12.20;99.90;;;;;;5038296;28;40063;-75
2023/10/27 00:07:19;;;;;;;40.15;28.58;;;12.10;99.90;;;;;;5035245;28;38621;-75
2023/10/27 00:09:45;;;;;;;40.78;28.90;;;12.10;99.90;;;;;;5038601;28;37401;-75
2023/10/27 00:12:12;;;;;;;43.55;29.48;;;12.10;99.90;;;;;;5043759;28;37592;-75
2023/10/27 00:14:38;;;;;;;48.50;30.02;;;12.10;99.90;;;;;;5043437;28;38850;-76
2023/10/27 00:17:04;;;;;;;45.17;29.23;;;12.10;99.90;;;;;;5038757;28;39177;-76
2023/10/27 00:19:30;;;;;;;43.90;28.35;;;12.10;99.90;;;;;;5034066;28;36562;-76
2023/10/27 00:21:56;;;;;;;40.97;27.48;;;12.10;99.90;;;;;;5036793;28;38727;-76
2023/10/27 00:24:22;;;;;;;44.22;28.05;;;12.10;99.90;;;;;;5042461;28;38220;-77
2023/10/27 00:26:48;;;;;;;40.75;26.83;;;12.10;99.90;;;;;;5039793;28;37551;-76
2023/10/27 00:29:14;;;;;;;45.58;28.13;;;12.00;99.90;;;;;;5047255;28;36275;-76
2023/10/27 00:31:40;;;;;;;40.05;26.38;;;12.10;99.90;;;;;;5039699;28;37843;-76
2023/10/27 00:34:06;;;;;;;38.05;26.88;;;12.10;99.90;;;;;;5032800;28;39592;-76
2023/10/27 00:36:33;;;;;;;46.47;29.77;;;12.10;99.90;;;;;;5038537;28;39335;-76
2023/10/27 00:38:59;;;;;;;44.20;27.75;;;12.20;99.90;;;;;;5040040;28;38812;-76
2023/10/27 00:41:25;;;;;;;36.58;26.35;;;12.10;99.90;;;;;;5042301;28;37770;-76
2023/10/27 00:43:51;;;;;;;42.55;29.02;;;12.20;99.90;;;;;;5039952;28;37813;-76
2023/10/27 00:46:17;;;;;;;39.78;27.25;;;12.10;99.90;;;;;;5042213;28;38384;-76
2023/10/27 00:48:43;;;;;;;33.53;25.60;;;12.10;99.90;;;;;;5041364;28;36379;-76
2023/10/27 00:51:11;;;;;;;36.97;26.85;;;12.10;99.90;;;;;;5047450;28;37606;-76
2023/10/27 00:53:38;;;;;;;35.60;25.52;;;12.10;99.90;;;;;;5041670;28;38034;-76
2023/10/27 00:56:04;;;;;;;55.80;32.15;;;12.10;99.90;;;;;;5038185;28;37584;-76
2023/10/27 00:58:31;;;;;;;41.42;27.45;;;12.20;99.90;;;;;;5038560;28;35947;-76
2023/10/27 01:03:33;;;;;;;37.13;26.30;;;12.20;99.90;;;;;;5158832;22;20362;-76
2023/10/27 01:05:59;;;;;;;62.53;33.53;;;12.20;99.90;;;;;;5063639;28;37611;-77
2023/10/27 01:08:25;;;;;;;46.38;29.05;;;12.20;99.90;;;;;;5065527;28;37075;-76
2023/10/27 01:10:52;;;;;;;36.20;26.27;;;12.20;99.90;;;;;;5066530;28;40559;-76
2023/10/27 01:13:34;;;;;;;45.97;28.52;;;12.20;99.90;;;;;;5068085;28;39677;-76
2023/10/27 01:16:00;;;;;;;35.08;25.80;;;12.20;99.90;;;;;;5065505;28;38718;-75
2023/10/27 01:18:26;;;;;;;37.85;25.50;;;12.20;99.90;;;;;;5064004;28;37237;-76
2023/10/27 01:20:52;;;;;;;36.33;26.17;;;12.20;99.90;;;;;;5066953;28;38999;-77
2023/10/27 01:23:18;;;;;;;43.45;26.85;;;12.20;99.90;;;;;;5068744;28;38933;-76
2023/10/27 01:25:49;;;;;;;39.47;26.58;;;12.10;99.90;;;;;;5067258;28;39037;-76
2023/10/27 01:28:15;;;;;;;40.67;26.02;;;12.10;99.90;;;;;;5059459;28;37304;-76
2023/10/27 01:30:41;;;;;;;37.95;24.48;;;12.10;99.90;;;;;;5064877;28;38378;-76
2023/10/27 01:33:07;;;;;;;38.00;26.33;;;12.10;99.90;;;;;;5067307;28;39867;-76
2023/10/27 01:35:36;;;;;;;38.28;25.73;;;12.10;99.90;;;;;;5066036;28;37433;-77
2023/10/27 01:38:02;;;;;;;36.72;24.63;;;12.00;99.90;;;;;;5067379;28;38307;-76
2023/10/27 01:40:28;;;;;;;41.13;25.02;;;12.00;99.90;;;;;;5065091;28;39883;-76
2023/10/27 01:42:54;;;;;;;38.33;26.00;;;12.10;99.90;;;;;;5067546;27;38575;-77
2023/10/27 01:45:20;;;;;;;43.65;27.38;;;12.00;99.90;;;;;;5056451;28;38355;-76
2023/10/27 01:47:47;;;;;;;37.75;24.55;;;12.00;99.90;;;;;;5063979;28;37774;-76
2023/10/27 01:50:13;;;;;;;37.05;24.05;;;12.00;99.90;;;;;;5062588;28;37481;-76
2023/10/27 01:52:41;;;;;;;35.15;24.58;;;12.00;99.90;;;;;;5063402;28;39027;-76
2023/10/27 01:55:07;;;;;;;38.15;25.60;;;12.10;99.90;;;;;;5067258;28;37726;-76
2023/10/27 01:57:33;;;;;;;36.75;24.17;;;12.10;99.90;;;;;;5063204;28;37312;-76
2023/10/27 01:59:59;;;;;;;37.97;24.42;;;12.10;99.90;;;;;;5064891;28;39242;-76
2023/10/27 02:02:25;;;;;;;47.90;26.95;;;12.10;99.90;;;;;;5062015;28;38131;-76
2023/10/27 02:04:51;;;;;;;32.22;22.38;;;12.10;99.90;;;;;;5066309;27;38448;-76
2023/10/27 02:07:23;;;;;;;46.70;24.80;;;12.10;99.90;;;;;;5057440;28;36219;-76
2023/10/27 02:09:50;;;;;;;40.67;23.50;;;12.10;99.90;;;;;;5061909;28;38473;-76
2023/10/27 02:12:17;;;;;;;38.15;24.95;;;12.00;99.90;;;;;;5064760;28;38900;-77
2023/10/27 02:14:43;;;;;;;43.22;25.27;;;12.00;99.90;;;;;;5069656;28;37291;-76
2023/10/27 02:17:10;;;;;;;40.15;23.05;;;12.00;99.90;;;;;;5063248;28;40485;-76
2023/10/27 02:19:36;;;;;;;40.25;23.80;;;12.00;99.90;;;;;;5063423;28;38641;-76
2023/10/27 02:22:03;;;;;;;43.83;25.67;;;12.00;99.90;;;;;;5068160;28;37609;-76
2023/10/27 02:24:29;;;;;;;36.72;22.83;;;12.00;99.90;;;;;;5066252;28;38611;-76
2023/10/27 02:26:55;;;;;;;33.05;22.88;;;11.90;99.90;;;;;;5065240;28;37259;-76
2023/10/27 02:29:21;;;;;;;40.53;24.52;;;11.90;99.90;;;;;;5060134;28;37789;-76
2023/10/27 02:31:48;;;;;;;33.50;23.40;;;11.90;99.90;;;;;;5059937;28;37799;-76
2023/10/27 02:34:14;;;;;;;30.58;21.83;;;11.90;99.90;;;;;;5062009;28;38253;-76
2023/10/27 02:36:40;;;;;;;32.33;23.15;;;11.90;99.90;;;;;;5068944;28;38118;-76
2023/10/27 02:39:06;;;;;;;28.08;21.30;;;12.00;99.90;;;;;;5063486;28;37631;-76
2023/10/27 02:41:32;;;;;;;32.40;22.45;;;11.90;99.90;;;;;;5066450;28;37594;-76
2023/10/27 02:43:58;;;;;;;33.58;21.85;;;11.90;99.90;;;;;;5062693;28;37553;-75
2023/10/27 02:46:24;;;;;;;27.65;20.05;;;11.90;99.90;;;;;;5064116;28;36352;-76
2023/10/27 02:48:51;;;;;;;25.80;19.15;;;11.90;99.90;;;;;;5066260;27;39401;-76
2023/10/27 02:51:18;;;;;;;30.10;20.10;;;11.90;99.90;;;;;;5062448;28;37892;-76
2023/10/27 02:53:45;;;;;;;23.20;18.60;;;11.90;99.90;;;;;;5060752;28;37355;-75
2023/10/27 02:56:11;;;;;;;23.50;18.48;;;11.90;99.90;;;;;;5065119;28;37921;-75
2023/10/27 02:58:37;;;;;;;23.90;17.98;;;11.90;99.90;;;;;;5059804;28;37465;-76
2023/10/27 03:01:09;;;;;;;31.08;18.95;;;11.90;99.90;;;;;;5059046;28;37885;-76
2023/10/27 03:03:36;;;;;;;24.83;17.73;;;11.90;99.90;;;;;;5068488;28;38771;-75
2023/10/27 03:06:03;;;;;;;26.67;18.05;;;11.90;99.90;;;;;;5064191;28;37260;-76
2023/10/27 03:08:31;;;;;;;26.95;18.75;;;11.90;99.90;;;;;;5064959;28;39014;-76
2023/10/27 03:10:57;;;;;;;25.08;18.98;;;11.90;99.90;;;;;;5077918;28;37814;-76
2023/10/27 03:13:24;;;;;;;37.28;20.70;;;12.00;99.90;;;;;;5057405;28;37878;-76
2023/10/27 03:15:50;;;;;;;27.52;20.17;;;12.00;99.90;;;;;;5063578;28;36383;-76
2023/10/27 03:18:18;;;;;;;26.73;19.88;;;11.90;99.90;;;;;;5060498;28;41096;-75
2023/10/27 03:20:44;;;;;;;28.65;20.50;;;11.90;99.90;;;;;;5061478;28;37761;-76
2023/10/27 03:23:11;;;;;;;31.58;21.35;;;11.90;99.90;;;;;;5070266;28;38398;-76
2023/10/27 03:25:37;;;;;;;31.20;21.25;;;11.90;99.90;;;;;;5064324;28;36532;-76
2023/10/27 03:28:03;;;;;;;28.58;19.13;;;11.90;99.90;;;;;;5060425;28;37583;-76
2023/10/27 03:30:29;;;;;;;25.38;18.85;;;11.90;99.90;;;;;;5065545;28;38015;-76
2023/10/27 03:32:55;;;;;;;26.15;19.98;;;11.90;99.90;;;;;;5063278;28;38127;-75
2023/10/27 03:35:21;;;;;;;22.38;18.70;;;11.90;99.90;;;;;;5065255;28;37596;-75
2023/10/27 03:38:17;;;;;;;27.27;19.15;;;11.90;99.90;;;;;;5057840;28;39318;-75
2023/10/27 03:40:49;;;;;;;25.20;18.63;;;11.80;99.90;;;;;;5055321;28;38503;-75
2023/10/27 03:43:16;;;;;;;24.23;19.48;;;11.80;99.90;;;;;;5066700;28;39376;-75
2023/10/27 03:45:42;;;;;;;24.60;18.50;;;11.80;99.90;;;;;;5067731;28;37510;-75
2023/10/27 03:48:08;;;;;;;27.38;19.33;;;11.80;99.90;;;;;;5065156;28;39634;-75
2023/10/27 03:50:37;;;;;;;27.25;20.65;;;11.80;99.90;;;;;;5065216;28;38463;-75
2023/10/27 03:53:04;;;;;;;22.33;19.23;;;11.80;99.90;;;;;;5066759;28;38054;-75
2023/10/27 03:55:30;;;;;;;23.33;18.25;;;11.80;99.90;;;;;;5071949;28;37221;-75
2023/10/27 03:58:15;;;;;;;26.70;19.95;;;11.80;99.90;;;;;;5070391;28;38030;-75
2023/10/27 04:00:41;;;;;;;31.13;20.60;;;11.80;99.90;;;;;;5062930;28;47385;-75
2023/10/27 04:03:07;;;;;;;25.77;19.35;;;11.80;99.90;;;;;;5061885;28;38557;-75
2023/10/27 04:05:33;;;;;;;26.52;19.10;;;11.80;99.90;;;;;;5066802;28;37773;-75
2023/10/27 04:07:59;;;;;;;23.17;18.02;;;11.80;99.90;;;;;;5068742;28;38323;-75
2023/10/27 04:10:26;;;;;;;24.58;18.33;;;11.80;99.90;;;;;;5064672;28;37938;-75
2023/10/27 04:12:52;;;;;;;28.00;19.42;;;11.80;99.90;;;;;;5072291;27;39684;-76
2023/10/27 04:15:33;;;;;;;22.10;18.23;;;11.90;99.90;;;;;;5070453;28;37238;-76
2023/10/27 04:18:02;;;;;;;25.90;18.90;;;11.90;99.90;;;;;;5049927;28;38697;-75
2023/10/27 04:20:29;;;;;;;24.73;18.50;;;11.80;99.90;;;;;;5059404;28;48483;-75
2023/10/27 04:22:55;;;;;;;24.40;19.20;;;11.90;99.90;;;;;;5056715;28;38784;-76
2023/10/27 04:25:23;;;;;;;21.40;18.13;;;11.90;99.90;;;;;;5067712;28;36280;-76
2023/10/27 04:27:49;;;;;;;26.63;20.33;;;11.90;99.90;;;;;;5068455;28;37928;-75
2023/10/27 04:30:15;;;;;;;22.05;18.20;;;11.90;99.90;;;;;;5067629;28;38432;-75
2023/10/27 04:32:41;;;;;;;21.80;16.95;;;11.90;99.90;;;;;;5064040;28;37484;-75
2023/10/27 04:35:09;;;;;;;21.73;16.83;;;11.90;99.90;;;;;;5065453;28;36597;-75
2023/10/27 04:37:35;;;;;;;25.25;17.95;;;11.90;99.90;;;;;;5065732;28;38757;-76
2023/10/27 04:40:02;;;;;;;20.67;17.25;;;11.90;99.90;;;;;;5057215;28;37133;-75
2023/10/27 04:42:28;;;;;;;22.75;17.85;;;11.90;99.90;;;;;;5068059;28;39195;-75
2023/10/27 04:44:54;;;;;;;22.83;17.25;;;11.80;99.90;;;;;;5059875;28;37314;-75
2023/10/27 04:47:20;;;;;;;22.85;17.73;;;11.80;99.90;;;;;;5009700;28;39369;-75
2023/10/27 04:49:47;;;;;;;23.30;17.70;;;11.80;99.90;;;;;;5004516;28;38898;-75
2023/10/27 04:52:13;;;;;;;24.33;18.38;;;11.80;99.90;;;;;;5025344;28;39390;-75
2023/10/27 04:54:42;;;;;;;19.65;16.50;;;11.80;99.90;;;;;;5016043;28;38129;-75
2023/10/27 04:57:08;;;;;;;21.77;16.98;;;11.80;99.90;;;;;;4972879;28;39451;-75
2023/10/27 04:59:34;;;;;;;23.00;17.98;;;11.80;99.90;;;;;;4971531;28;37755;-74
2023/10/27 05:02:14;;;;;;;22.35;17.88;;;11.80;99.90;;;;;;4987493;28;38486;-75
2023/10/27 05:04:55;;;;;;;20.48;17.80;;;11.80;99.90;;;;;;4969874;28;48573;-75
2023/10/27 05:07:24;;;;;;;24.25;18.77;;;11.80;99.90;;;;;;4981603;28;37456;-75
2023/10/27 05:09:56;;;;;;;22.33;19.33;;;11.80;99.90;;;;;;4983442;28;39685;-75
2023/10/27 05:12:23;;;;;;;23.55;18.85;;;11.80;99.90;;;;;;4959219;28;39150;-74
2023/10/27 05:15:10;;;;;;;24.25;19.58;;;11.70;99.90;;;;;;4953856;28;36619;-74
2023/10/27 05:17:40;;;;;;;25.85;19.75;;;11.80;99.90;;;;;;4956289;28;48712;-74
2023/10/27 05:20:06;;;;;;;24.98;19.75;;;11.80;99.90;;;;;;5006060;28;38940;-74
2023/10/27 05:22:33;;;;;;;23.15;19.40;;;11.70;99.90;;;;;;5017672;28;39554;-74
2023/10/27 05:25:03;;;;;;;22.13;19.23;;;11.70;99.90;;;;;;5017358;28;37586;-74
2023/10/27 05:27:31;;;;;;;23.25;19.27;;;11.70;99.90;;;;;;5024633;28;39749;-74
2023/10/27 05:29:57;;;;;;;25.52;18.70;;;11.70;99.90;;;;;;5063245;28;38646;-74
2023/10/27 05:32:23;;;;;;;28.08;20.33;;;11.80;99.90;;;;;;5056112;28;38351;-74
2023/10/27 05:34:49;;;;;;;22.33;18.38;;;11.80;99.90;;;;;;5055997;28;36279;-74
2023/10/27 05:37:15;;;;;;;24.95;19.35;;;11.80;99.90;;;;;;5062244;28;38433;-74
2023/10/27 05:39:43;;;;;;;21.40;17.10;;;11.80;99.90;;;;;;5083571;28;38185;-74
2023/10/27 05:42:09;;;;;;;21.05;17.48;;;11.80;99.90;;;;;;5060664;27;39097;-75
2023/10/27 05:44:35;;;;;;;21.45;17.70;;;11.80;99.90;;;;;;5056698;28;36527;-74
2023/10/27 05:47:04;;;;;;;24.33;17.48;;;11.80;99.90;;;;;;5063033;28;39696;-74
2023/10/27 05:49:30;;;;;;;20.60;16.88;;;11.80;99.90;;;;;;5057818;28;38611;-74
2023/10/27 05:51:57;;;;;;;23.73;18.20;;;11.80;99.90;;;;;;5049898;28;39297;-74
2023/10/27 05:54:23;;;;;;;24.90;18.23;;;11.80;99.90;;;;;;5053680;28;36694;-74
2023/10/27 05:56:49;;;;;;;28.33;18.38;;;11.80;99.90;;;;;;5054686;28;37587;-74
2023/10/27 05:59:15;;;;;;;20.95;16.55;;;11.80;99.90;;;;;;5051541;28;37631;-74
2023/10/27 06:01:41;;;;;;;26.17;18.42;;;11.80;99.90;;;;;;5053514;28;37945;-74
2023/10/27 06:04:07;;;;;;;20.48;15.85;;;11.80;99.90;;;;;;5050884;28;36610;-75
2023/10/27 06:06:33;;;;;;;22.35;16.30;;;11.80;99.90;;;;;;5051163;28;39459;-75
2023/10/27 06:08:59;;;;;;;33.70;19.13;;;11.80;99.90;;;;;;5054743;28;38700;-74
2023/10/27 06:11:25;;;;;;;23.15;17.92;;;11.80;99.90;;;;;;5055752;28;39192;-74
2023/10/27 06:13:53;;;;;;;19.63;15.65;;;11.80;99.90;;;;;;5049704;28;37558;-74
2023/10/27 06:16:19;;;;;;;20.10;16.23;;;11.90;99.90;;;;;;5056438;28;37965;-73
2023/10/27 06:18:45;;;;;;;28.67;18.73;;;11.90;99.90;;;;;;5049378;28;38704;-72
2023/10/27 06:21:11;;;;;;;23.50;16.83;;;12.00;99.90;;;;;;5052473;28;38756;-74
2023/10/27 06:23:38;;;;;;;21.88;16.75;;;12.00;99.90;;;;;;5050850;28;36411;-74
2023/10/27 06:26:05;;;;;;;19.35;15.45;;;12.00;99.90;;;;;;5050324;28;38522;-74
2023/10/27 06:28:31;;;;;;;22.73;17.15;;;12.00;99.90;;;;;;5048448;28;37656;-74
2023/10/27 06:30:57;;;;;;;21.48;16.08;;;11.90;99.90;;;;;;5052176;28;38023;-74
2023/10/27 06:33:23;;;;;;;25.85;18.52;;;11.90;99.90;;;;;;5061990;28;38687;-74
2023/10/27 06:35:50;;;;;;;23.75;17.48;;;11.90;99.90;;;;;;5046118;28;38017;-74
2023/10/27 06:38:16;;;;;;;19.35;15.65;;;11.90;99.90;;;;;;5049623;28;37529;-74
2023/10/27 06:40:42;;;;;;;23.70;17.23;;;11.80;99.90;;;;;;5050001;28;38100;-74
2023/10/27 06:43:08;;;;;;;27.17;20.15;;;11.80;99.90;;;;;;5053521;28;36473;-73
2023/10/27 06:45:34;;;;;;;31.83;22.45;;;11.80;99.90;;;;;;5050144;28;37540;-74
2023/10/27 06:48:00;;;;;;;33.25;22.02;;;11.80;99.90;;;;;;5055455;28;38565;-73
2023/10/27 06:50:26;;;;;;;27.77;18.77;;;11.90;99.90;;;;;;5056019;28;40820;-74
2023/10/27 06:52:53;;;;;;;20.25;17.00;;;11.90;99.90;;;;;;5052797;28;37158;-74
2023/10/27 06:55:20;;;;;;;25.08;18.38;;;11.90;99.90;;;;;;5050625;28;37699;-74
2023/10/27 06:57:46;;;;;;;25.48;19.20;;;11.90;99.90;;;;;;5051823;28;37706;-74
2023/10/27 07:00:12;;;;;;;23.27;18.50;;;11.80;99.90;;;;;;5054717;28;38250;-74
2023/10/27 07:02:39;;;;;;;24.27;19.05;;;11.80;99.90;;;;;;5051877;28;36895;-74
2023/10/27 07:05:05;;;;;;;25.98;19.40;;;11.80;99.90;;;;;;5052422;28;38446;-74
2023/10/27 07:07:31;;;;;;;22.13;18.35;;;11.80;99.90;;;;;;5052609;28;38488;-74
2023/10/27 07:09:59;;;;;;;24.35;19.55;;;11.80;99.90;;;;;;5049202;28;39661;-74
2023/10/27 07:12:25;;;;;;;22.50;18.77;;;11.80;99.90;;;;;;5057184;28;36709;-74
2023/10/27 07:14:51;;;;;;;22.02;18.45;;;11.70;99.90;;;;;;5059612;28;39021;-74
2023/10/27 07:17:17;;;;;;;31.55;20.67;;;11.80;99.90;;;;;;5052749;28;38437;-74
2023/10/27 07:19:43;;;;;;;43.28;25.52;;;11.80;99.90;;;;;;5051972;28;37600;-74
2023/10/27 07:22:09;;;;;;;22.83;19.08;;;11.90;99.90;;;;;;5045917;28;37615;-74
2023/10/27 07:24:35;;;;;;;24.95;19.10;;;11.90;99.90;;;;;;5047689;28;38809;-74
2023/10/27 07:27:02;;;;;;;26.88;20.30;;;11.90;99.90;;;;;;5051722;28;39762;-74
2023/10/27 07:29:28;;;;;;;26.10;20.48;;;11.80;99.90;;;;;;5053483;28;37081;-74
2023/10/27 07:31:54;;;;;;;21.70;18.45;;;11.80;99.90;;;;;;5052271;28;35249;-74
2023/10/27 07:34:20;;;;;;;23.23;19.10;;;11.90;99.90;;;;;;5046643;28;39032;-74
2023/10/27 07:36:46;;;;;;;22.55;19.02;;;11.80;99.90;;;;;;5049643;28;39904;-74
2023/10/27 07:39:12;;;;;;;27.17;20.25;;;11.90;99.90;;;;;;5049767;28;38351;-74
2023/10/27 07:41:38;;;;;;;25.30;19.35;;;11.90;99.90;;;;;;5050569;28;37267;-74
2023/10/27 07:44:05;;;;;;;22.13;18.65;;;11.90;99.90;;;;;;5049992;28;37798;-74
2023/10/27 07:46:31;;;;;;;27.30;19.60;;;11.90;99.90;;;;;;5049390;28;39161;-74
2023/10/27 07:48:58;;;;;;;25.35;18.88;;;11.90;99.90;;;;;;5057246;28;38761;-74
2023/10/27 07:51:24;;;;;;;21.90;17.98;;;11.90;99.90;;;;;;5047718;28;37787;-74
2023/10/27 07:53:50;;;;;;;19.83;16.67;;;11.90;99.90;;;;;;5055379;28;39122;-74
2023/10/27 07:56:19;;;;;;;20.65;17.58;;;11.90;99.90;;;;;;5052185;28;38742;-74
2023/10/27 07:58:45;;;;;;;21.30;18.15;;;12.00;99.90;;;;;;5051088;28;37209;-74
2023/10/27 08:01:11;;;;;;;21.05;15.73;;;12.00;99.90;;;;;;5055365;28;37383;-74
2023/10/27 08:03:38;;;;;;;20.35;17.58;;;12.00;99.90;;;;;;5057492;28;37336;-74
2023/10/27 08:06:07;;;;;;;18.98;16.73;;;12.00;99.90;;;;;;5057576;28;20053;-74
2023/10/27 08:08:34;;;;;;;17.08;15.32;;;12.00;99.90;;;;;;5051583;28;37576;-74
2023/10/27 08:11:00;;;;;;;18.08;15.50;;;12.00;99.90;;;;;;5052725;28;36936;-75
2023/10/27 08:13:26;;;;;;;17.25;15.00;;;12.00;99.90;;;;;;5054038;28;37951;-73
2023/10/27 08:15:52;;;;;;;17.30;14.00;;;12.00;99.90;;;;;;5051704;28;38590;-73
2023/10/27 08:18:19;;;;;;;18.83;14.73;;;12.00;99.90;;;;;;5053785;28;37090;-73
2023/10/27 08:20:45;;;;;;;15.80;13.85;;;12.00;99.90;;;;;;5055697;28;37314;-73
2023/10/27 08:23:11;;;;;;;19.48;14.98;;;12.00;99.90;;;;;;5051266;28;37673;-73
2023/10/27 08:25:37;;;;;;;20.08;15.23;;;12.10;99.90;;;;;;5053789;28;39333;-74
2023/10/27 08:28:05;;;;;;;16.23;14.52;;;12.10;99.90;;;;;;5051162;28;36981;-74
2023/10/27 08:30:31;;;;;;;17.40;13.93;;;12.10;99.90;;;;;;5052015;28;35386;-74
2023/10/27 08:32:57;;;;;;;16.38;14.30;;;12.10;99.90;;;;;;5054147;28;37558;-74
2023/10/27 08:35:23;;;;;;;20.30;15.15;;;12.20;99.90;;;;;;5052116;28;39314;-73
2023/10/27 08:37:49;;;;;;;27.27;17.80;;;12.20;99.90;;;;;;5050915;28;38336;-75
2023/10/27 08:40:17;;;;;;;20.00;15.55;;;12.20;99.90;;;;;;5050556;28;37435;-74
2023/10/27 08:42:49;;;;;;;18.17;14.38;;;12.30;99.90;;;;;;5049329;28;39097;-74
2023/10/27 08:45:15;;;;;;;21.47;17.07;;;12.30;99.90;;;;;;5054675;28;37567;-74
2023/10/27 08:47:42;;;;;;;23.10;16.92;;;12.30;99.90;;;;;;5053023;28;37404;-74
2023/10/27 08:50:09;;;;;;;23.13;17.23;;;12.40;99.90;;;;;;5055391;28;37474;-74
2023/10/27 08:52:36;;;;;;;18.65;15.90;;;12.40;99.90;;;;;;5048985;28;39151;-74
2023/10/27 08:55:07;;;;;;;17.08;15.05;;;12.30;99.90;;;;;;5066969;28;40564;-74
2023/10/27 08:57:34;;;;;;;20.20;17.17;;;12.40;99.90;;;;;;5052741;28;48756;-74
2023/10/27 09:00:00;;;;;;;20.25;16.13;;;12.30;99.90;;;;;;5053877;28;37422;-74
2023/10/27 09:02:30;;;;;;;17.88;15.27;;;12.30;99.90;;;;;;5052411;28;36772;-74
2023/10/27 09:05:02;;;;;;;20.23;16.17;;;12.20;99.90;;;;;;5050727;28;37856;-74
2023/10/27 09:07:30;;;;;;;18.42;15.75;;;12.20;99.90;;;;;;5055479;28;37615;-74
2023/10/27 09:09:58;;;;;;;18.45;15.18;;;12.20;99.90;;;;;;5055819;28;37787;-74
2023/10/27 09:12:27;;;;;;;15.95;13.95;;;12.30;99.90;;;;;;5055669;28;38388;-75
2023/10/27 09:15:04;;;;;;;16.63;14.10;;;12.30;99.90;;;;;;5054151;28;38631;-74
2023/10/27 09:17:49;;;;;;;13.60;12.02;;;12.30;99.90;;;;;;5052740;28;39428;-74
2023/10/27 09:20:15;;;;;;;15.65;12.15;;;12.30;99.90;;;;;;5065358;28;36179;-74
2023/10/27 09:22:54;;;;;;;15.90;12.05;;;12.30;99.90;;;;;;5054136;28;38335;-74
2023/10/27 09:25:21;;;;;;;13.20;10.15;;;12.40;99.90;;;;;;5054831;28;38081;-74
2023/10/27 09:27:49;;;;;;;11.32;9.45;;;12.30;99.90;;;;;;5052047;28;37867;-75
2023/10/27 09:30:26;;;;;;;11.90;9.30;;;12.30;99.90;;;;;;5047487;28;36366;-74
2023/10/27 09:32:52;;;;;;;10.15;7.70;;;12.30;99.90;;;;;;5058117;28;39311;-73
2023/10/27 09:35:18;;;;;;;9.75;8.52;;;12.40;99.90;;;;;;5048856;28;39048;-74
2023/10/27 09:37:48;;;;;;;6.90;6.20;;;12.40;99.90;;;;;;5048713;28;41154;-73
2023/10/27 09:40:15;;;;;;;6.78;5.45;;;12.40;99.90;;;;;;5051295;28;36522;-74
2023/10/27 09:42:43;;;;;;;5.72;4.90;;;12.50;99.90;;;;;;5046161;28;38975;-74
2023/10/27 09:45:17;;;;;;;8.18;6.50;;;12.50;99.90;;;;;;5054887;28;38864;-74
2023/10/27 09:47:52;;;;;;;12.65;9.15;;;12.50;99.90;;;;;;5050399;28;37407;-74
2023/10/27 09:50:24;;;;;;;9.10;7.07;;;12.70;99.90;;;;;;5052598;28;35499;-75
2023/10/27 09:52:55;;;;;;;6.03;4.60;;;12.70;99.90;;;;;;5049434;28;37506;-74
2023/10/27 09:55:21;;;;;;;4.57;4.00;;;12.60;99.90;;;;;;5051549;28;39176;-74
2023/10/27 09:57:47;;;;;;;4.35;3.95;;;12.40;99.90;;;;;;5070748;28;37215;-74
2023/10/27 10:00:20;;;;;;;7.03;4.45;;;12.50;99.90;;;;;;5053503;28;37392;-74
2023/10/27 10:02:48;;;;;;;3.65;3.35;;;12.50;99.90;;;;;;5052146;28;38323;-74
2023/10/27 10:05:14;;;;;;;4.32;3.92;;;12.50;99.90;;;;;;5052929;28;38745;-74
2023/10/27 10:07:47;;;;;;;4.10;3.45;;;12.50;99.90;;;;;;5053326;28;37118;-74
2023/10/27 10:10:22;;;;;;;3.55;3.00;;;12.60;99.90;;;;;;5049416;28;37100;-74
2023/10/27 10:13:14;;;;;;;4.15;3.40;;;12.60;99.90;;;;;;5054843;28;37023;-73
2023/10/27 10:15:41;;;;;;;4.35;3.70;;;12.50;99.90;;;;;;5052407;28;48803;-73
2023/10/27 10:18:20;;;;;;;4.18;2.90;;;12.60;99.90;;;;;;5043336;28;37596;-74
2023/10/27 10:20:52;;;;;;;4.93;3.67;;;12.60;99.90;;;;;;5051637;28;35870;-74
2023/10/27 10:23:19;;;;;;;5.40;3.67;;;12.60;99.90;;;;;;5045241;28;37559;-73
2023/10/27 10:25:56;;;;;;;4.22;3.20;;;12.60;99.90;;;;;;5052723;28;40753;-73
2023/10/27 10:28:23;;;;;;;5.40;3.70;;;12.50;99.90;;;;;;5053269;28;37962;-74
2023/10/27 10:31:13;;;;;;;3.70;3.40;;;12.50;99.90;;;;;;5057372;28;37759;-74
2023/10/27 10:33:40;;;;;;;7.60;4.60;;;12.50;99.90;;;;;;5051536;28;47418;-73
2023/10/27 10:36:20;;;;;;;6.43;4.80;;;12.50;99.90;;;;;;5048575;28;39920;-73
2023/10/27 10:38:50;;;;;;;9.32;5.75;;;12.40;99.90;;;;;;5054183;28;35801;-73
2023/10/27 10:41:19;;;;;;;7.28;6.30;;;12.30;99.90;;;;;;5057550;28;38252;-74
2023/10/27 10:44:06;;;;;;;8.00;6.47;;;12.40;99.90;;;;;;5053779;28;38009;-75
2023/10/27 10:46:32;;;;;;;10.93;7.50;;;12.50;99.90;;;;;;5054414;28;47154;-75
2023/10/27 10:48:58;;;;;;;12.05;8.65;;;12.50;99.90;;;;;;5056955;28;39015;-74
2023/10/27 10:51:36;;;;;;;9.68;7.53;;;12.50;99.90;;;;;;5056542;28;35878;-75
2023/10/27 10:54:03;;;;;;;9.95;8.50;;;12.60;99.90;;;;;;5057875;28;37664;-75
2023/10/27 10:56:29;;;;;;;11.63;8.48;;;12.60;99.90;;;;;;5062131;28;38127;-74
2023/10/27 10:58:56;;;;;;;17.15;11.95;;;12.70;99.90;;;;;;5058959;28;37249;-74
2023/10/27 11:01:23;;;;;;;15.50;12.45;;;12.80;99.90;;;;;;5059685;28;35800;-74
2023/10/27 11:03:53;;;;;;;19.05;13.93;;;12.90;99.90;;;;;;5049604;28;37546;-75
2023/10/27 11:06:21;;;;;;;20.02;14.32;;;12.80;99.90;;;;;;5047501;28;36680;-75
2023/10/27 11:08:47;;;;;;;16.73;12.35;;;12.80;99.90;;;;;;5050789;28;38717;-75
2023/10/27 11:11:14;;;;;;;17.48;11.32;;;12.80;99.90;;;;;;5053041;28;37490;-74
2023/10/27 11:13:44;;;;;;;13.13;10.50;;;12.80;99.90;;;;;;5053459;28;38582;-74
2023/10/27 11:16:19;;;;;;;15.68;10.50;;;12.90;99.90;;;;;;5067640;28;38780;-74
2023/10/27 11:18:46;;;;;;;14.27;10.48;;;12.90;99.90;;;;;;5051518;28;38825;-74
2023/10/27 11:21:20;;;;;;;14.95;10.88;;;12.90;99.90;;;;;;5042914;28;36474;-73
2023/10/27 11:23:47;;;;;;;12.80;10.82;;;12.90;99.90;;;;;;5053253;28;39047;-73
2023/10/27 11:26:16;;;;;;;17.23;10.25;;;12.90;99.90;;;;;;5050356;28;39529;-73
2023/10/27 11:28:43;;;;;;;12.88;9.88;;;12.80;99.90;;;;;;5051473;28;39362;-74
2023/10/27 11:31:22;;;;;;;12.93;10.50;;;12.80;99.90;;;;;;5073434;28;36290;-74
2023/10/27 11:34:07;;;;;;;12.43;9.63;;;12.80;99.90;;;;;;5052941;28;36580;-73
2023/10/27 11:36:59;;;;;;;13.45;10.20;;;12.80;99.90;;;;;;5046981;28;46938;-73
2023/10/27 11:39:25;;;;;;;14.93;11.60;;;12.90;99.90;;;;;;5050730;28;37687;-73
2023/10/27 11:42:00;;;;;;;15.20;10.70;;;12.80;99.90;;;;;;5049832;28;36547;-74
2023/10/27 11:44:27;;;;;;;13.55;12.07;;;12.90;99.90;;;;;;5051585;28;37537;-75
2023/10/27 11:46:56;;;;;;;16.02;12.27;;;12.90;99.90;;;;;;5055255;28;39838;-73
2023/10/27 11:49:23;;;;;;;13.23;11.57;;;12.90;99.90;;;;;;5052337;28;37729;-73
2023/10/27 11:51:52;;;;;;;17.25;12.82;;;12.90;99.90;;;;;;5051940;28;37407;-73
2023/10/27 11:54:19;;;;;;;19.40;13.30;;;12.90;99.90;;;;;;5050350;28;36576;-73
2023/10/27 11:56:46;;;;;;;17.08;13.43;;;13.00;99.90;;;;;;5049188;28;37968;-75
2023/10/27 11:59:13;;;;;;;16.77;12.48;;;13.00;99.90;;;;;;5051275;28;38803;-75
2023/10/27 12:01:39;;;;;;;14.15;12.18;;;13.10;99.90;;;;;;5044037;28;37401;-75
2023/10/27 12:04:10;;;;;;;19.35;12.00;;;13.10;99.90;;;;;;5045548;28;39593;-74
2023/10/27 12:06:43;;;;;;;15.43;11.40;;;13.00;99.90;;;;;;5050440;28;39007;-75
2023/10/27 12:09:12;;;;;;;12.57;8.65;;;13.00;99.90;;;;;;5048029;28;37314;-74
2023/10/27 12:11:41;;;;;;;8.27;6.63;;;13.00;99.90;;;;;;5046999;28;37277;-74
2023/10/27 12:14:07;;;;;;;8.88;5.82;;;12.90;99.90;;;;;;5046017;28;38749;-74
2023/10/27 12:16:34;;;;;;;8.52;5.60;;;12.90;99.90;;;;;;5049400;28;38928;-75
2023/10/27 12:19:01;;;;;;;7.95;5.47;;;12.80;99.90;;;;;;5051688;28;37441;-75
2023/10/27 12:21:27;;;;;;;5.75;4.28;;;12.80;99.90;;;;;;5047101;28;47179;-74
2023/10/27 12:23:54;;;;;;;6.57;4.57;;;12.80;99.90;;;;;;5047656;28;38666;-75
2023/10/27 12:26:21;;;;;;;4.70;4.25;;;12.80;99.90;;;;;;5043447;28;39512;-75
2023/10/27 12:28:47;;;;;;;4.40;3.53;;;12.80;99.90;;;;;;5050033;28;38339;-75
2023/10/27 12:31:14;;;;;;;4.65;3.63;;;12.70;99.90;;;;;;5048520;28;36096;-75
2023/10/27 12:33:41;;;;;;;5.82;3.78;;;12.60;99.90;;;;;;5051639;28;37415;-74
2023/10/27 12:36:12;;;;;;;6.07;4.30;;;12.60;99.90;;;;;;5050569;28;38748;-75